sensor_id;sensor_type;location;lat;lon;timestamp;pressure;altitude;pressure_sealevel;temperature;humidity
43691;BME280;29293;52.190;21.226;2023-08-01T00:14:09;99564.23;;;16.72;100.00
43691;BME280;29293;52.190;21.226;2023-08-01T00:29:16;99553.85;;;16.70;100.00
43691;BME280;29293;52.190;21.226;2023-08-01T00:44:23;99541.15;;;16.71;100.00
43691;BME280;29293;52.190;21.226;2023-08-01T00:59:29;99523.40;;;16.69;100.00
43691;BME280;29293;52.190;21.226;2023-08-01T01:14:39;99504.67;;;16.65;100.00
43691;BME280;29293;52.190;21.226;2023-08-01T01:29:46;99492.27;;;16.59;100.00
43691;BME280;29293;52.190;21.226;2023-08-01T01:44:53;99479.11;;;16.59;100.00
43691;BME280;29293;52.190;21.226;2023-08-01T02:00:01;99456.00;;;16.59;100.00
43691;BME280;29293;52.190;21.226;2023-08-01T02:15:09;99443.48;;;16.60;100.00
43691;BME280;29293;52.190;21.226;2023-08-01T02:30:16;99427.55;;;16.51;100.00
43691;BME280;29293;52.190;21.226;2023-08-01T02:45:23;99404.67;;;16.27;100.00
43691;BME280;29293;52.190;21.226;2023-08-01T03:00:30;99374.05;;;16.10;100.00
43691;BME280;29293;52.190;21.226;2023-08-01T03:15:38;99360.48;;;15.98;100.00
43691;BME280;29293;52.190;21.226;2023-08-01T03:30:45;99355.75;;;16.07;100.00
43691;BME280;29293;52.190;21.226;2023-08-01T03:45:55;99338.28;;;16.18;100.00
43691;BME280;29293;52.190;21.226;2023-08-01T04:01:01;99328.59;;;16.32;100.00
43691;BME280;29293;52.190;21.226;2023-08-01T04:16:08;99321.80;;;16.45;100.00
43691;BME280;29293;52.190;21.226;2023-08-01T04:31:16;99309.61;;;16.61;100.00
43691;BME280;29293;52.190;21.226;2023-08-01T04:46:23;99302.09;;;16.74;100.00
43691;BME280;29293;52.190;21.226;2023-08-01T05:01:30;99298.11;;;16.90;100.00
43691;BME280;29293;52.190;21.226;2023-08-01T05:16:36;99287.30;;;17.30;100.00
43691;BME280;29293;52.190;21.226;2023-08-01T05:31:43;99272.68;;;17.77;100.00
43691;BME280;29293;52.190;21.226;2023-08-01T05:46:50;99262.02;;;18.24;100.00
43691;BME280;29293;52.190;21.226;2023-08-01T06:01:57;99255.33;;;18.79;100.00
43691;BME280;29293;52.190;21.226;2023-08-01T06:17:04;99248.25;;;19.10;100.00
43691;BME280;29293;52.190;21.226;2023-08-01T06:32:12;99239.35;;;19.35;100.00
43691;BME280;29293;52.190;21.226;2023-08-01T06:47:18;99226.29;;;19.51;100.00
43691;BME280;29293;52.190;21.226;2023-08-01T07:02:25;99210.08;;;19.66;100.00
43691;BME280;29293;52.190;21.226;2023-08-01T07:17:32;99194.41;;;20.06;100.00
43691;BME280;29293;52.190;21.226;2023-08-01T07:32:42;99180.31;;;20.72;100.00
43691;BME280;29293;52.190;21.226;2023-08-01T07:47:51;99168.38;;;21.32;100.00
43691;BME280;29293;52.190;21.226;2023-08-01T08:02:59;99151.80;;;21.87;100.00
43691;BME280;29293;52.190;21.226;2023-08-01T08:18:06;99141.15;;;22.30;100.00
43691;BME280;29293;52.190;21.226;2023-08-01T08:33:20;99119.80;;;22.64;100.00
43691;BME280;29293;52.190;21.226;2023-08-01T08:48:33;99107.11;;;22.77;100.00
43691;BME280;29293;52.190;21.226;2023-08-01T09:03:40;99098.79;;;22.81;100.00
43691;BME280;29293;52.190;21.226;2023-08-01T09:18:50;99086.81;;;22.70;100.00
43691;BME280;29293;52.190;21.226;2023-08-01T09:33:57;99080.33;;;22.71;100.00
43691;BME280;29293;52.190;21.226;2023-08-01T09:49:11;99078.64;;;22.50;100.00
43691;BME280;29293;52.190;21.226;2023-08-01T10:04:20;99066.31;;;22.50;100.00
43691;BME280;29293;52.190;21.226;2023-08-01T10:19:29;99064.99;;;22.59;100.00
43691;BME280;29293;52.190;21.226;2023-08-01T10:34:40;99055.17;;;22.86;100.00
43691;BME280;29293;52.190;21.226;2023-08-01T10:50:00;99066.36;;;22.50;100.00
43691;BME280;29293;52.190;21.226;2023-08-01T11:05:08;99071.35;;;21.54;100.00
43691;BME280;29293;52.190;21.226;2023-08-01T11:20:15;99059.52;;;20.86;100.00
43691;BME280;29293;52.190;21.226;2023-08-01T11:35:22;99050.90;;;20.64;100.00
43691;BME280;29293;52.190;21.226;2023-08-01T11:50:29;99052.08;;;20.50;100.00
43691;BME280;29293;52.190;21.226;2023-08-01T12:05:36;99043.58;;;20.45;100.00
43691;BME280;29293;52.190;21.226;2023-08-01T12:20:43;99028.45;;;20.56;100.00
43691;BME280;29293;52.190;21.226;2023-08-01T12:35:50;99003.35;;;21.05;100.00
43691;BME280;29293;52.190;21.226;2023-08-01T12:50:57;98991.20;;;21.12;100.00
43691;BME280;29293;52.190;21.226;2023-08-01T13:06:04;98973.94;;;21.08;100.00
43691;BME280;29293;52.190;21.226;2023-08-01T13:21:11;98962.17;;;21.37;100.00
43691;BME280;29293;52.190;21.226;2023-08-01T13:36:19;98946.48;;;21.76;100.00
43691;BME280;29293;52.190;21.226;2023-08-01T13:51:26;98938.66;;;21.95;100.00
43691;BME280;29293;52.190;21.226;2023-08-01T14:06:34;98914.58;;;21.94;100.00
43691;BME280;29293;52.190;21.226;2023-08-01T14:21:46;98899.85;;;21.83;100.00
43691;BME280;29293;52.190;21.226;2023-08-01T14:36:54;98886.67;;;21.36;100.00
43691;BME280;29293;52.190;21.226;2023-08-01T14:52:05;98887.61;;;21.34;100.00
43691;BME280;29293;52.190;21.226;2023-08-01T15:07:13;98874.48;;;21.38;100.00
43691;BME280;29293;52.190;21.226;2023-08-01T15:22:20;98875.10;;;20.87;100.00
43691;BME280;29293;52.190;21.226;2023-08-01T15:37:28;98860.73;;;20.32;100.00
43691;BME280;29293;52.190;21.226;2023-08-01T15:52:35;98858.63;;;20.33;100.00
43691;BME280;29293;52.190;21.226;2023-08-01T16:07:42;98861.98;;;20.50;100.00
43691;BME280;29293;52.190;21.226;2023-08-01T16:22:51;98873.67;;;20.59;100.00
43691;BME280;29293;52.190;21.226;2023-08-01T16:37:59;98866.63;;;20.52;100.00
43691;BME280;29293;52.190;21.226;2023-08-01T16:53:07;98866.57;;;20.34;100.00
43691;BME280;29293;52.190;21.226;2023-08-01T17:08:14;98880.08;;;20.22;100.00
43691;BME280;29293;52.190;21.226;2023-08-01T17:23:22;98889.34;;;20.10;100.00
43691;BME280;29293;52.190;21.226;2023-08-01T17:38:29;98895.61;;;19.98;100.00
43691;BME280;29293;52.190;21.226;2023-08-01T17:53:36;98900.15;;;19.83;100.00
43691;BME280;29293;52.190;21.226;2023-08-01T18:08:44;98911.13;;;19.68;100.00
43691;BME280;29293;52.190;21.226;2023-08-01T18:23:51;98924.42;;;19.52;100.00
43691;BME280;29293;52.190;21.226;2023-08-01T18:38:58;98929.13;;;19.41;100.00
43691;BME280;29293;52.190;21.226;2023-08-01T18:54:06;98940.08;;;19.30;100.00
43691;BME280;29293;52.190;21.226;2023-08-01T19:09:18;98943.83;;;19.20;100.00
43691;BME280;29293;52.190;21.226;2023-08-01T19:24:30;98942.20;;;19.12;100.00
43691;BME280;29293;52.190;21.226;2023-08-01T19:39:48;98950.86;;;19.04;100.00
43691;BME280;29293;52.190;21.226;2023-08-01T19:55:16;98957.29;;;18.97;100.00
43691;BME280;29293;52.190;21.226;2023-08-01T20:10:23;98967.84;;;18.92;100.00
43691;BME280;29293;52.190;21.226;2023-08-01T20:25:30;98980.95;;;18.81;100.00
43691;BME280;29293;52.190;21.226;2023-08-01T20:40:37;99001.63;;;18.71;100.00
43691;BME280;29293;52.190;21.226;2023-08-01T20:55:47;99018.02;;;18.42;100.00
43691;BME280;29293;52.190;21.226;2023-08-01T21:10:53;99029.72;;;18.04;100.00
43691;BME280;29293;52.190;21.226;2023-08-01T21:26:00;99040.72;;;17.82;100.00
43691;BME280;29293;52.190;21.226;2023-08-01T21:41:08;99039.41;;;17.67;100.00
43691;BME280;29293;52.190;21.226;2023-08-01T21:56:18;99042.48;;;17.54;100.00
43691;BME280;29293;52.190;21.226;2023-08-01T22:11:24;99040.47;;;17.43;100.00
43691;BME280;29293;52.190;21.226;2023-08-01T22:26:32;99024.62;;;17.31;100.00
43691;BME280;29293;52.190;21.226;2023-08-01T22:41:38;99038.52;;;17.20;100.00
43691;BME280;29293;52.190;21.226;2023-08-01T22:56:45;99037.05;;;17.10;100.00
43691;BME280;29293;52.190;21.226;2023-08-01T23:11:52;99051.91;;;17.03;100.00
43691;BME280;29293;52.190;21.226;2023-08-01T23:26:59;99063.34;;;16.98;100.00
43691;BME280;29293;52.190;21.226;2023-08-01T23:42:07;99065.64;;;16.95;100.00
43691;BME280;29293;52.190;21.226;2023-08-01T23:57:14;99071.27;;;16.88;100.00
